Time;durP1;ratioP1;P1;durP2;ratioP2;P2;SDS_P1;SDS_P2;PMS_P1;PMS_P2;Temp;Humidity;BMP_temperature;BMP_pressure;BME280_temperature;BME280_humidity;BME280_pressure;Samples;Min_cycle;Max_cycle;Signal;HPM_P1;HPM_P2
2022/06/16 00:00:22;;;;;;;5.35;2.03;;;19.90;90.50;;;;;;4096063;28;20035;-70
2022/06/16 00:02:23;;;;;;;3.10;2.00;;;20.00;91.20;;;;;;4095894;28;20035;-69
2022/06/16 00:04:25;;;;;;;6.05;2.30;;;19.90;90.10;;;;;;4097149;28;20038;-69
2022/06/16 00:06:26;;;;;;;2.53;1.95;;;19.90;87.80;;;;;;4095997;28;20047;-69
2022/06/16 00:08:26;;;;;;;6.25;2.28;;;19.80;90.10;;;;;;4096602;28;20186;-71
2022/06/16 00:10:27;;;;;;;3.28;1.95;;;19.70;88.40;;;;;;4096491;28;20035;-68
2022/06/16 00:12:28;;;;;;;5.13;2.08;;;19.70;89.20;;;;;;4096700;28;20062;-68
2022/06/16 00:14:29;;;;;;;4.07;1.90;;;19.70;90.70;;;;;;4097334;28;20098;-69
2022/06/16 00:16:30;;;;;;;2.95;1.95;;;19.70;89.10;;;;;;4095234;29;20027;-69
2022/06/16 00:18:31;;;;;;;7.82;2.10;;;19.70;88.90;;;;;;4100685;28;20391;-69
2022/06/16 00:20:31;;;;;;;4.60;1.83;;;19.60;90.10;;;;;;4096810;28;20031;-69
2022/06/16 00:22:32;;;;;;;7.97;2.45;;;19.60;90.90;;;;;;4096251;28;20035;-69
2022/06/16 00:24:33;;;;;;;3.70;2.20;;;19.70;91.10;;;;;;4086011;29;20410;-69
2022/06/16 00:26:34;;;;;;;5.35;2.33;;;19.70;90.50;;;;;;4095492;28;20035;-69
2022/06/16 00:28:34;;;;;;;4.95;2.40;;;19.70;91.60;;;;;;4099778;28;20047;-69
2022/06/16 00:30:35;;;;;;;2.80;1.98;;;19.70;91.00;;;;;;4096166;28;20061;-69
2022/06/16 00:32:41;;;;;;;4.55;2.20;;;19.70;91.10;;;;;;4095914;28;20094;-68
2022/06/16 00:34:42;;;;;;;6.22;2.20;;;19.70;91.00;;;;;;4096872;28;20402;-69
2022/06/16 00:36:42;;;;;;;4.15;1.88;;;19.70;89.10;;;;;;4096594;28;20035;-69
2022/06/16 00:38:43;;;;;;;7.60;2.33;;;19.70;88.70;;;;;;4097437;28;20035;-69
2022/06/16 00:40:44;;;;;;;4.55;2.42;;;19.60;87.80;;;;;;4096029;28;20046;-69
2022/06/16 00:42:45;;;;;;;3.55;2.00;;;19.50;87.50;;;;;;4083130;29;20040;-69
2022/06/16 00:44:51;;;;;;;4.78;2.25;;;19.50;89.80;;;;;;4096600;28;20039;-69
2022/06/16 00:46:53;;;;;;;5.93;2.42;;;19.40;86.80;;;;;;4096140;28;20070;-69
2022/06/16 00:49:00;;;;;;;3.60;2.13;;;19.30;87.50;;;;;;4096434;28;20042;-69
2022/06/16 00:51:19;;;;;;;3.40;2.10;;;19.20;88.70;;;;;;4095164;28;20115;-69
2022/06/16 00:53:19;;;;;;;3.53;2.22;;;19.00;87.90;;;;;;4096544;28;20047;-69
2022/06/16 00:55:20;;;;;;;4.40;1.83;;;19.10;90.20;;;;;;4098083;28;20042;-70
2022/06/16 00:57:25;;;;;;;3.60;1.95;;;19.10;87.80;;;;;;4096697;28;20045;-69
2022/06/16 00:59:26;;;;;;;4.45;2.25;;;19.10;88.20;;;;;;4092724;28;20456;-71
2022/06/16 01:01:27;;;;;;;2.70;2.15;;;19.00;89.00;;;;;;4095571;28;20031;-70
2022/06/16 01:05:47;;;;;;;5.25;2.25;;;19.10;88.20;;;;;;4095621;28;20503;-69
2022/06/16 01:07:49;;;;;;;5.03;1.95;;;19.10;90.10;;;;;;4096162;28;20118;-70
2022/06/16 01:09:51;;;;;;;4.78;2.20;;;19.10;87.60;;;;;;4096028;28;20027;-69
2022/06/16 01:14:43;;;;;;;7.05;1.98;;;18.90;87.50;;;;;;4091715;28;20043;-70
2022/06/16 01:16:47;;;;;;;5.93;2.47;;;18.80;88.10;;;;;;4091366;29;20047;-70
2022/06/16 01:19:03;;;;;;;4.63;2.42;;;18.80;88.30;;;;;;4095589;28;20035;-70
2022/06/16 01:21:13;;;;;;;4.82;1.90;;;18.90;90.00;;;;;;4094842;28;20483;-69
2022/06/16 01:23:43;;;;;;;4.18;1.73;;;18.90;90.30;;;;;;4095792;28;20027;-70
2022/06/16 01:26:11;;;;;;;2.75;2.00;;;18.90;87.90;;;;;;4094163;28;20047;-69
2022/06/16 01:28:23;;;;;;;5.55;2.30;;;19.00;91.30;;;;;;4094147;28;20042;-69
2022/06/16 01:30:42;;;;;;;5.28;2.10;;;18.90;90.10;;;;;;4092562;28;20515;-71
2022/06/16 01:32:47;;;;;;;4.20;1.73;;;18.80;88.90;;;;;;4095130;28;20090;-69
2022/06/16 01:35:06;;;;;;;2.75;1.60;;;18.90;88.20;;;;;;4094467;28;20704;-69
2022/06/16 01:37:34;;;;;;;4.40;1.80;;;18.80;88.40;;;;;;4092493;28;20032;-69
2022/06/16 01:39:46;;;;;;;3.28;1.77;;;18.80;87.90;;;;;;4095157;28;20058;-70
2022/06/16 01:42:02;;;;;;;3.40;1.95;;;18.90;89.50;;;;;;4094820;28;20035;-69
2022/06/16 01:44:20;;;;;;;2.75;1.80;;;18.80;88.00;;;;;;4096037;28;20488;-69
2022/06/16 01:46:26;;;;;;;3.22;1.65;;;18.80;89.40;;;;;;4096366;28;20027;-69
2022/06/16 01:48:29;;;;;;;3.55;1.90;;;18.90;89.80;;;;;;4095235;28;20498;-69
2022/06/16 01:50:39;;;;;;;3.92;1.90;;;18.80;89.90;;;;;;4095221;28;20035;-71
2022/06/16 01:52:49;;;;;;;4.28;2.30;;;18.80;90.20;;;;;;4095080;28;20414;-69
2022/06/16 01:55:05;;;;;;;3.47;1.80;;;18.90;87.80;;;;;;4095723;28;20039;-70
2022/06/16 01:57:17;;;;;;;6.38;2.10;;;18.90;89.40;;;;;;4095129;28;20036;-69
2022/06/16 01:59:48;;;;;;;4.07;1.95;;;18.90;89.10;;;;;;4094885;28;20487;-69
2022/06/16 02:01:57;;;;;;;4.95;1.90;;;18.90;90.70;;;;;;4091141;28;20368;-69
2022/06/16 02:04:07;;;;;;;3.45;1.65;;;19.00;89.50;;;;;;4095556;28;20086;-70
2022/06/16 02:06:30;;;;;;;5.50;2.00;;;19.00;89.40;;;;;;4096699;28;20057;-68
2022/06/16 02:08:36;;;;;;;2.45;1.50;;;19.00;90.90;;;;;;4094440;28;20035;-69
2022/06/16 02:10:41;;;;;;;3.20;1.90;;;19.00;90.50;;;;;;4095403;28;20098;-69
2022/06/16 02:12:56;;;;;;;1.85;1.63;;;19.10;90.80;;;;;;4094978;28;20039;-69
2022/06/16 02:14:56;;;;;;;4.38;1.90;;;19.10;91.60;;;;;;4092269;28;20058;-70
2022/06/16 02:16:58;;;;;;;7.90;1.98;;;19.10;89.90;;;;;;4095195;28;20051;-70
2022/06/16 02:18:59;;;;;;;3.45;1.60;;;19.10;90.30;;;;;;4095040;28;20051;-70
2022/06/16 02:21:19;;;;;;;3.55;1.95;;;19.10;87.10;;;;;;4089234;28;20122;-69
2022/06/16 02:23:21;;;;;;;4.40;1.80;;;19.10;89.70;;;;;;4094569;28;20046;-70
2022/06/16 02:25:21;;;;;;;3.85;1.88;;;19.00;86.90;;;;;;4094431;28;20059;-71
2022/06/16 02:27:22;;;;;;;3.65;1.70;;;19.00;88.50;;;;;;4095514;28;20039;-70
2022/06/16 02:29:29;;;;;;;3.97;2.00;;;19.00;87.70;;;;;;4094772;28;20043;-70
2022/06/16 02:31:48;;;;;;;4.30;2.00;;;19.00;88.70;;;;;;4083864;29;20163;-70
2022/06/16 02:34:11;;;;;;;4.40;1.80;;;18.80;87.10;;;;;;4095512;28;20118;-69
2022/06/16 02:36:26;;;;;;;3.38;1.80;;;18.70;87.90;;;;;;4093025;28;20043;-69
2022/06/16 02:38:50;;;;;;;3.25;1.80;;;18.70;88.80;;;;;;4091810;28;20049;-70
2022/06/16 02:41:00;;;;;;;3.05;1.95;;;18.60;90.40;;;;;;4096832;28;20058;-69
2022/06/16 02:43:21;;;;;;;1.95;1.30;;;18.70;90.00;;;;;;4095130;28;20423;-69
2022/06/16 02:45:43;;;;;;;2.05;1.58;;;18.70;90.20;;;;;;4096281;28;20035;-71
2022/06/16 02:47:59;;;;;;;4.10;1.95;;;18.70;89.50;;;;;;4094950;28;20459;-69
2022/06/16 02:50:05;;;;;;;3.75;1.75;;;18.70;90.00;;;;;;4098450;28;20035;-69
2022/06/16 02:52:37;;;;;;;2.92;1.77;;;18.70;88.30;;;;;;4099100;28;20074;-70
2022/06/16 02:54:47;;;;;;;3.58;1.70;;;18.70;90.00;;;;;;4095232;28;20067;-69
2022/06/16 02:57:06;;;;;;;4.75;2.30;;;18.70;91.20;;;;;;4097405;28;20035;-69
2022/06/16 02:59:14;;;;;;;5.63;2.30;;;18.70;91.70;;;;;;4096721;28;20035;-69
2022/06/16 03:01:15;;;;;;;3.05;2.15;;;18.70;91.20;;;;;;4093600;28;20035;-69
2022/06/16 03:03:25;;;;;;;4.60;2.00;;;18.70;90.90;;;;;;4098377;28;20042;-69
2022/06/16 03:05:26;;;;;;;3.13;1.90;;;18.70;92.20;;;;;;4097065;28;20035;-70
2022/06/16 03:07:28;;;;;;;3.78;2.33;;;18.70;92.90;;;;;;4099659;28;20050;-69
2022/06/16 03:09:29;;;;;;;3.50;2.10;;;18.60;92.60;;;;;;4097622;28;20039;-69
2022/06/16 03:11:30;;;;;;;5.20;2.53;;;18.60;91.90;;;;;;4097089;28;20070;-69
2022/06/16 03:13:32;;;;;;;3.30;1.85;;;18.70;91.40;;;;;;4098030;28;20039;-68
2022/06/16 03:15:33;;;;;;;3.58;2.03;;;18.70;90.80;;;;;;4097324;28;20074;-69
2022/06/16 03:17:33;;;;;;;6.28;2.53;;;18.70;90.50;;;;;;4096967;28;20387;-69
2022/06/16 03:19:34;;;;;;;3.80;2.10;;;18.60;91.00;;;;;;4096530;28;20106;-69
2022/06/16 03:21:35;;;;;;;3.63;1.77;;;18.70;91.20;;;;;;4096337;28;21549;-69
2022/06/16 03:23:36;;;;;;;2.90;1.80;;;18.70;91.60;;;;;;4098150;28;20045;-69
2022/06/16 03:25:37;;;;;;;5.40;2.40;;;18.70;92.00;;;;;;4097049;28;20036;-69
2022/06/16 03:27:38;;;;;;;4.85;2.60;;;18.60;91.80;;;;;;4096669;28;20055;-69
2022/06/16 03:29:39;;;;;;;3.70;1.85;;;18.60;92.40;;;;;;4096993;28;20052;-69
2022/06/16 03:31:39;;;;;;;3.83;2.13;;;18.60;92.40;;;;;;4096286;28;20042;-69
2022/06/16 03:33:40;;;;;;;3.58;2.00;;;18.60;92.80;;;;;;4097521;28;20040;-70
2022/06/16 03:35:41;;;;;;;4.10;1.95;;;18.50;92.70;;;;;;4096433;28;20417;-69
2022/06/16 03:37:42;;;;;;;3.20;2.10;;;18.50;93.40;;;;;;4099776;28;20039;-69
2022/06/16 03:39:43;;;;;;;3.67;2.13;;;18.50;92.90;;;;;;4096957;28;20113;-69
2022/06/16 03:41:43;;;;;;;4.28;2.05;;;18.50;92.50;;;;;;4096474;28;20031;-69
2022/06/16 03:43:44;;;;;;;4.20;1.98;;;18.50;91.90;;;;;;4097456;28;20059;-69
2022/06/16 03:45:45;;;;;;;3.55;1.90;;;18.50;91.70;;;;;;4096397;28;20042;-69
2022/06/16 03:47:46;;;;;;;4.30;2.42;;;18.50;91.70;;;;;;4100079;28;20046;-69
2022/06/16 03:49:46;;;;;;;4.28;1.88;;;18.50;92.00;;;;;;4097046;28;20466;-69
2022/06/16 03:51:47;;;;;;;3.45;2.05;;;18.50;92.40;;;;;;4095801;28;20042;-69
2022/06/16 03:53:48;;;;;;;3.33;2.00;;;18.40;92.00;;;;;;4097313;28;20091;-69
2022/06/16 03:55:49;;;;;;;3.75;2.10;;;18.50;91.70;;;;;;4096152;28;20051;-69
2022/06/16 03:57:50;;;;;;;5.00;2.10;;;18.40;92.20;;;;;;4098744;28;20106;-69
2022/06/16 03:59:51;;;;;;;4.80;2.20;;;18.40;92.70;;;;;;4096054;28;20130;-69
2022/06/16 04:01:51;;;;;;;4.03;2.08;;;18.40;92.00;;;;;;4091544;28;20043;-69
2022/06/16 04:04:01;;;;;;;4.78;2.03;;;18.40;91.80;;;;;;4097365;28;20134;-69
2022/06/16 04:06:02;;;;;;;3.00;2.00;;;18.40;91.50;;;;;;4095739;28;20394;-69
2022/06/16 04:08:03;;;;;;;3.47;1.88;;;18.30;91.50;;;;;;4096676;28;20066;-69
2022/06/16 04:10:06;;;;;;;3.22;2.03;;;18.40;92.30;;;;;;4096641;28;20094;-70
2022/06/16 04:12:07;;;;;;;5.32;2.47;;;18.30;92.70;;;;;;4096265;28;20086;-69
2022/06/16 04:14:11;;;;;;;3.88;2.03;;;18.30;91.80;;;;;;4093169;28;20031;-69
2022/06/16 04:16:11;;;;;;;4.32;1.92;;;18.30;92.00;;;;;;4093823;28;20050;-69
2022/06/16 04:18:12;;;;;;;4.85;1.95;;;18.30;92.30;;;;;;4095777;28;20027;-69
2022/06/16 04:20:13;;;;;;;4.28;2.20;;;18.20;91.70;;;;;;4096421;28;20035;-70
2022/06/16 04:22:13;;;;;;;3.35;2.30;;;18.20;91.80;;;;;;4096475;28;20090;-69
2022/06/16 04:24:16;;;;;;;2.30;1.88;;;18.20;92.40;;;;;;4096492;28;20046;-69
2022/06/16 04:26:17;;;;;;;4.47;1.80;;;18.20;92.40;;;;;;4095486;28;20491;-69
2022/06/16 04:28:18;;;;;;;4.85;2.40;;;18.20;92.50;;;;;;4096200;28;20031;-69
2022/06/16 04:30:19;;;;;;;3.30;1.88;;;18.30;93.20;;;;;;4095649;28;20062;-70
2022/06/16 04:32:19;;;;;;;2.83;1.77;;;18.20;92.70;;;;;;4095883;28;20032;-70
2022/06/16 04:34:20;;;;;;;4.28;1.90;;;18.20;92.50;;;;;;4096421;28;20035;-69
2022/06/16 04:36:20;;;;;;;4.55;2.20;;;18.30;93.20;;;;;;4095728;28;20114;-69
2022/06/16 04:38:21;;;;;;;4.70;2.08;;;18.20;93.60;;;;;;4095636;28;20043;-69
2022/06/16 04:40:22;;;;;;;3.58;1.90;;;18.30;93.20;;;;;;4096431;28;20042;-70
2022/06/16 04:42:22;;;;;;;3.78;1.98;;;18.30;93.80;;;;;;4096014;28;20043;-69
2022/06/16 04:44:23;;;;;;;6.00;1.88;;;18.30;93.10;;;;;;4098841;28;20391;-69
2022/06/16 04:46:25;;;;;;;3.05;1.98;;;18.30;93.40;;;;;;4095297;28;20061;-69
2022/06/16 04:48:27;;;;;;;4.00;1.80;;;18.20;93.80;;;;;;4095847;28;20049;-69
2022/06/16 04:50:27;;;;;;;3.10;1.73;;;18.20;93.50;;;;;;4096142;28;20062;-70
2022/06/16 04:52:28;;;;;;;3.40;1.67;;;18.30;93.70;;;;;;4095342;28;20035;-69
2022/06/16 04:54:29;;;;;;;4.65;1.90;;;18.20;93.80;;;;;;4098034;28;20411;-70
2022/06/16 04:56:29;;;;;;;6.30;1.83;;;18.30;93.40;;;;;;4095448;28;20039;-69
2022/06/16 04:58:30;;;;;;;4.72;2.22;;;18.30;93.40;;;;;;4094247;28;20031;-70
2022/06/16 05:00:31;;;;;;;4.97;2.38;;;18.30;93.20;;;;;;4094938;28;20035;-70
2022/06/16 05:02:32;;;;;;;3.42;1.70;;;18.20;93.30;;;;;;4094819;28;20082;-70
2022/06/16 05:04:34;;;;;;;4.40;1.88;;;18.30;93.80;;;;;;4096404;28;20038;-68
2022/06/16 05:06:34;;;;;;;3.53;2.20;;;18.20;93.30;;;;;;4095236;28;20035;-69
2022/06/16 05:08:36;;;;;;;3.50;2.13;;;18.20;93.70;;;;;;4090009;28;20638;-70
2022/06/16 05:10:37;;;;;;;5.40;2.42;;;18.20;93.90;;;;;;4094522;28;20089;-73
2022/06/16 05:12:38;;;;;;;3.13;2.10;;;18.20;94.90;;;;;;4093593;28;20035;-73
2022/06/16 05:14:38;;;;;;;4.13;2.50;;;18.20;94.20;;;;;;4094801;28;20043;-73
2022/06/16 05:16:39;;;;;;;6.57;2.42;;;18.20;94.10;;;;;;4094795;28;20447;-70
2022/06/16 05:18:40;;;;;;;3.60;2.15;;;18.20;94.50;;;;;;4094183;28;20042;-72
2022/06/16 05:20:44;;;;;;;3.00;2.00;;;18.20;94.20;;;;;;4095175;28;20094;-72
2022/06/16 05:22:44;;;;;;;3.17;1.90;;;18.30;94.10;;;;;;4090409;28;20047;-73
2022/06/16 05:24:45;;;;;;;3.92;1.88;;;18.30;94.30;;;;;;4095628;28;20094;-73
2022/06/16 05:26:45;;;;;;;4.43;2.00;;;18.30;93.70;;;;;;4077969;29;20863;-73
2022/06/16 05:28:46;;;;;;;4.57;2.13;;;18.40;94.40;;;;;;4094796;28;20406;-73
2022/06/16 05:30:47;;;;;;;6.07;2.35;;;18.30;94.30;;;;;;4093703;28;20181;-73
2022/06/16 05:32:47;;;;;;;3.88;2.03;;;18.30;94.60;;;;;;4095381;28;20074;-72
2022/06/16 05:34:48;;;;;;;4.22;2.20;;;18.40;94.50;;;;;;4094138;28;20039;-73
2022/06/16 05:36:48;;;;;;;3.60;2.00;;;18.40;91.30;;;;;;4095482;28;20118;-73
2022/06/16 05:38:49;;;;;;;3.28;1.85;;;18.40;92.40;;;;;;4094724;28;20034;-73
2022/06/16 05:41:12;;;;;;;4.40;2.28;;;18.40;91.50;;;;;;4092922;28;20062;-73
2022/06/16 05:43:12;;;;;;;3.42;1.80;;;18.50;93.00;;;;;;4094674;28;20035;-73
2022/06/16 05:45:13;;;;;;;8.07;1.80;;;18.50;90.90;;;;;;4095043;28;20043;-73
2022/06/16 05:47:14;;;;;;;4.85;1.92;;;18.60;91.80;;;;;;4095136;28;20051;-73
2022/06/16 05:49:15;;;;;;;4.40;1.85;;;18.80;90.90;;;;;;4093783;28;20476;-74
2022/06/16 05:51:16;;;;;;;5.38;1.88;;;19.20;89.00;;;;;;4094643;28;20418;-73
2022/06/16 05:53:17;;;;;;;2.75;1.55;;;19.60;90.70;;;;;;4094361;28;20035;-73
2022/06/16 05:55:18;;;;;;;5.30;1.80;;;19.90;86.60;;;;;;4094725;28;20113;-73
2022/06/16 05:57:19;;;;;;;3.40;1.30;;;20.30;91.20;;;;;;4095501;28;20474;-74
2022/06/16 05:59:19;;;;;;;3.28;1.65;;;20.70;90.00;;;;;;4092725;28;20482;-74
2022/06/16 06:01:20;;;;;;;3.05;1.45;;;20.90;82.80;;;;;;4094009;28;21386;-74
2022/06/16 06:03:20;;;;;;;2.53;1.52;;;21.30;84.80;;;;;;4095617;28;20043;-74
2022/06/16 06:05:21;;;;;;;2.42;1.48;;;21.70;84.00;;;;;;4095201;28;20076;-74
2022/06/16 06:07:22;;;;;;;3.00;1.52;;;22.00;79.90;;;;;;4094113;28;20398;-74
2022/06/16 06:16:26;;;;;;;3.92;1.42;;;22.90;76.70;;;;;;4091545;28;20031;-73
2022/06/16 06:18:27;;;;;;;2.05;1.40;;;23.20;73.90;;;;;;4093967;28;20439;-73
2022/06/16 06:20:27;;;;;;;2.60;1.38;;;23.20;73.40;;;;;;4099033;28;20124;-73
2022/06/16 06:22:28;;;;;;;4.22;1.40;;;23.50;76.00;;;;;;4095938;28;20035;-73
2022/06/16 06:24:33;;;;;;;4.93;1.42;;;23.60;71.20;;;;;;4098965;28;20062;-73
2022/06/16 06:26:34;;;;;;;1.48;1.00;;;23.80;74.50;;;;;;4097159;28;20031;-73
2022/06/16 06:28:34;;;;;;;4.18;1.40;;;24.00;72.20;;;;;;4098189;28;20505;-73
2022/06/16 06:30:35;;;;;;;2.40;1.27;;;24.20;77.00;;;;;;4098400;28;20045;-73
2022/06/16 06:32:36;;;;;;;2.63;1.48;;;24.20;72.00;;;;;;4099816;28;21446;-73
2022/06/16 06:34:36;;;;;;;2.58;0.98;;;24.20;70.90;;;;;;4098455;28;20152;-73
2022/06/16 06:36:37;;;;;;;2.72;1.30;;;24.20;74.00;;;;;;4096120;28;20086;-73
2022/06/16 06:38:37;;;;;;;2.67;1.17;;;24.20;72.20;;;;;;4096463;28;20446;-73
2022/06/16 06:40:38;;;;;;;1.88;1.30;;;24.10;72.50;;;;;;4098250;28;20122;-73
2022/06/16 06:42:39;;;;;;;2.88;1.30;;;24.10;74.40;;;;;;4098001;28;20039;-73
2022/06/16 06:44:39;;;;;;;2.63;1.30;;;24.10;73.10;;;;;;4099195;28;20447;-73
2022/06/16 06:46:40;;;;;;;2.80;1.30;;;23.90;74.20;;;;;;4095288;28;20446;-73
2022/06/16 06:48:42;;;;;;;3.38;1.40;;;24.00;73.20;;;;;;4097221;28;20031;-73
2022/06/16 06:50:42;;;;;;;2.97;1.33;;;23.90;74.80;;;;;;4097758;28;20035;-72
2022/06/16 06:52:43;;;;;;;3.78;1.58;;;23.90;73.90;;;;;;4098062;28;20041;-73
2022/06/16 06:54:45;;;;;;;2.90;1.30;;;23.80;69.00;;;;;;4098750;28;20106;-72
2022/06/16 06:56:47;;;;;;;3.78;1.27;;;23.80;76.20;;;;;;4097796;28;20435;-73
2022/06/16 06:58:47;;;;;;;3.13;0.87;;;23.90;72.40;;;;;;4097786;28;20031;-73
2022/06/16 07:00:53;;;;;;;3.63;1.10;;;23.90;75.60;;;;;;4099165;28;20634;-73
2022/06/16 07:02:54;;;;;;;3.25;1.23;;;23.90;75.30;;;;;;4096617;28;20145;-73
2022/06/16 07:04:54;;;;;;;3.70;1.48;;;23.90;72.20;;;;;;4086356;29;20076;-73
2022/06/16 07:06:55;;;;;;;3.90;1.35;;;23.80;67.10;;;;;;4097191;28;20057;-73
2022/06/16 07:08:56;;;;;;;2.17;0.90;;;23.80;73.50;;;;;;4096190;28;20039;-73
2022/06/16 07:10:56;;;;;;;2.47;1.15;;;23.90;71.10;;;;;;4096594;28;20031;-73
2022/06/16 07:12:57;;;;;;;2.53;1.35;;;23.90;72.60;;;;;;4096754;28;20023;-73
2022/06/16 07:14:57;;;;;;;2.42;1.10;;;23.90;73.50;;;;;;4098053;28;20028;-73
2022/06/16 07:16:58;;;;;;;2.38;1.40;;;23.80;73.10;;;;;;4097175;28;20067;-73
2022/06/16 07:18:59;;;;;;;3.67;1.20;;;23.90;73.70;;;;;;4097694;28;20070;-73
2022/06/16 07:20:59;;;;;;;2.50;1.25;;;23.90;69.50;;;;;;4098599;28;20026;-73
2022/06/16 07:23:00;;;;;;;1.75;0.93;;;24.00;73.40;;;;;;4094609;28;20023;-73
2022/06/16 07:25:01;;;;;;;3.55;1.30;;;24.10;70.20;;;;;;4097968;28;20082;-73
2022/06/16 07:27:02;;;;;;;1.95;1.00;;;24.00;73.70;;;;;;4096659;28;20035;-72
2022/06/16 07:29:03;;;;;;;1.70;1.00;;;24.10;71.20;;;;;;4096970;28;20135;-73
2022/06/16 07:31:03;;;;;;;3.25;1.40;;;24.10;71.10;;;;;;4099333;28;20504;-72
2022/06/16 07:33:04;;;;;;;2.03;1.05;;;23.90;67.80;;;;;;4092195;29;20019;-73
2022/06/16 07:35:05;;;;;;;1.38;0.95;;;24.10;73.70;;;;;;4097244;28;20027;-72
2022/06/16 07:37:05;;;;;;;2.78;1.02;;;24.10;73.70;;;;;;4091405;28;20036;-73
2022/06/16 07:39:06;;;;;;;4.13;1.33;;;24.20;70.10;;;;;;4097472;28;20037;-72
2022/06/16 07:43:26;;;;;;;0.82;0.70;;;24.30;70.40;;;;;;4097801;28;20564;-72
2022/06/16 07:45:29;;;;;;;2.03;1.10;;;24.30;70.40;;;;;;4098100;28;20039;-72
2022/06/16 07:47:29;;;;;;;1.83;1.00;;;24.40;71.60;;;;;;4096842;28;20058;-72
2022/06/16 07:49:31;;;;;;;2.58;0.85;;;24.40;70.00;;;;;;4095849;28;20046;-73
2022/06/16 07:51:32;;;;;;;1.48;0.88;;;24.50;67.00;;;;;;4098129;28;20487;-72
2022/06/16 07:53:32;;;;;;;2.60;0.98;;;24.50;70.00;;;;;;4096877;28;20086;-72
2022/06/16 07:55:34;;;;;;;1.10;0.77;;;24.50;67.70;;;;;;4096824;29;20047;-72
2022/06/16 07:57:43;;;;;;;2.07;1.17;;;24.50;65.90;;;;;;4097906;28;20717;-72
2022/06/16 07:59:48;;;;;;;3.10;1.27;;;24.50;71.00;;;;;;4095629;28;20039;-72
2022/06/16 08:01:49;;;;;;;1.60;0.88;;;24.60;70.30;;;;;;4095148;28;20032;-72
2022/06/16 08:03:49;;;;;;;1.67;0.85;;;24.40;61.90;;;;;;4094334;28;20043;-72
2022/06/16 08:05:50;;;;;;;1.50;0.82;;;24.40;63.60;;;;;;4096326;29;20035;-72
2022/06/16 08:07:50;;;;;;;2.70;0.85;;;24.30;63.90;;;;;;4096116;28;20047;-72
2022/06/16 08:09:51;;;;;;;2.05;0.70;;;24.20;67.00;;;;;;4095853;28;20058;-72
2022/06/16 08:12:04;;;;;;;1.02;0.65;;;24.20;62.50;;;;;;4095257;28;20548;-72
2022/06/16 08:14:04;;;;;;;;;;;24.10;63.40;;;;;;4094861;28;20039;-71
2022/06/16 08:16:05;;;;;;;2.10;0.80;;;24.20;66.60;;;;;;4096353;28;19999;-72
2022/06/16 08:18:08;;;;;;;0.93;0.65;;;24.20;63.20;;;;;;4086884;29;20039;-72
2022/06/16 08:20:09;;;;;;;4.13;0.82;;;24.20;64.30;;;;;;4094432;28;20043;-75
2022/06/16 08:22:12;;;;;;;1.10;0.50;;;24.20;67.60;;;;;;4090024;28;20521;-72
2022/06/16 08:24:12;;;;;;;1.20;0.70;;;24.30;66.80;;;;;;4092928;28;20031;-73
2022/06/16 08:26:13;;;;;;;1.85;0.88;;;24.40;69.90;;;;;;4093309;28;20043;-73
2022/06/16 08:28:17;;;;;;;1.20;0.70;;;24.60;66.70;;;;;;4088607;28;20089;-72
2022/06/16 08:30:18;;;;;;;5.82;1.00;;;24.20;61.10;;;;;;4092085;28;20073;-72
2022/06/16 08:32:20;;;;;;;2.28;0.90;;;23.90;63.50;;;;;;4077450;29;20058;-72
2022/06/16 08:34:21;;;;;;;1.50;0.73;;;23.80;64.50;;;;;;4096654;28;20501;-73
2022/06/16 08:36:22;;;;;;;2.95;1.02;;;23.50;64.40;;;;;;4095371;28;20031;-72
2022/06/16 08:38:23;;;;;;;1.60;0.75;;;23.70;71.70;;;;;;4096448;28;20027;-72
2022/06/16 08:40:24;;;;;;;2.70;1.05;;;23.90;70.30;;;;;;4095745;28;20027;-73
2022/06/16 08:42:48;;;;;;;2.17;0.80;;;23.80;62.90;;;;;;4095102;28;20462;-73
2022/06/16 08:45:02;;;;;;;1.33;0.82;;;23.80;67.10;;;;;;4080468;29;20098;-73
2022/06/16 08:47:09;;;;;;;2.00;0.90;;;24.10;68.10;;;;;;4095052;28;20027;-73
2022/06/16 08:49:39;;;;;;;1.38;0.70;;;24.10;68.20;;;;;;4092474;28;20062;-72
2022/06/16 08:52:01;;;;;;;1.55;0.75;;;24.20;64.90;;;;;;4093128;28;20037;-73
2022/06/16 08:54:28;;;;;;;2.08;0.70;;;24.30;66.10;;;;;;4097601;28;20047;-73
2022/06/16 08:56:52;;;;;;;1.77;0.60;;;24.50;63.30;;;;;;4091630;28;20379;-73
2022/06/16 08:59:14;;;;;;;3.60;0.75;;;24.30;64.10;;;;;;4095128;28;20059;-72
2022/06/16 09:01:25;;;;;;;1.98;0.95;;;24.60;67.70;;;;;;4094413;28;20035;-72
2022/06/16 09:03:25;;;;;;;1.40;0.77;;;24.20;59.60;;;;;;4096420;28;20438;-73
2022/06/16 09:05:33;;;;;;;2.55;0.95;;;24.00;61.40;;;;;;4089874;28;20066;-72
2022/06/16 09:07:55;;;;;;;0.80;0.63;;;24.10;63.10;;;;;;4095202;28;20174;-72
2022/06/16 09:10:16;;;;;;;1.57;0.50;;;24.30;63.30;;;;;;4092486;28;20178;-72
2022/06/16 09:12:26;;;;;;;0.85;0.50;;;24.40;63.30;;;;;;4090345;28;20039;-72
2022/06/16 09:15:12;;;;;;;0.95;0.63;;;24.50;62.20;;;;;;4094791;28;20068;-72
2022/06/16 09:17:40;;;;;;;0.73;0.60;;;24.50;63.40;;;;;;4095371;28;20028;-72
2022/06/16 09:20:07;;;;;;;1.20;0.70;;;24.70;63.20;;;;;;4094568;28;20411;-73
2022/06/16 09:22:19;;;;;;;1.58;0.65;;;24.10;59.40;;;;;;4093689;28;20651;-72
2022/06/16 09:24:46;;;;;;;2.08;0.65;;;24.20;63.30;;;;;;4092703;28;20047;-72
2022/06/16 09:26:58;;;;;;;2.00;0.60;;;24.40;67.00;;;;;;4074134;28;20081;-73
2022/06/16 09:29:23;;;;;;;0.90;0.52;;;24.60;65.50;;;;;;4091961;28;20130;-73
2022/06/16 09:31:51;;;;;;;1.83;0.60;;;24.70;65.70;;;;;;4091342;28;20294;-72
2022/06/16 09:33:58;;;;;;;1.10;0.50;;;25.00;66.40;;;;;;4070149;29;20075;-72
2022/06/16 09:36:04;;;;;;;1.73;0.65;;;25.10;66.30;;;;;;4092988;28;20380;-72
2022/06/16 09:38:17;;;;;;;2.15;0.70;;;25.20;66.70;;;;;;4095904;28;20062;-73
2022/06/16 09:40:28;;;;;;;1.13;0.68;;;25.40;63.10;;;;;;4092309;28;20031;-72
2022/06/16 09:42:37;;;;;;;2.97;0.60;;;25.40;63.70;;;;;;4096078;28;20035;-72
2022/06/16 09:45:07;;;;;;;1.33;0.82;;;25.40;63.40;;;;;;4095259;28;20491;-72
2022/06/16 09:47:13;;;;;;;2.50;1.00;;;25.50;66.00;;;;;;4093618;28;20483;-73
2022/06/16 09:49:24;;;;;;;4.35;0.75;;;25.60;63.50;;;;;;4096481;28;20058;-73
2022/06/16 09:51:36;;;;;;;1.27;0.68;;;25.70;65.10;;;;;;4093481;28;20122;-73
2022/06/16 09:53:44;;;;;;;1.20;0.75;;;25.80;62.30;;;;;;4094912;28;20175;-72
2022/06/16 09:55:55;;;;;;;2.28;0.70;;;25.90;61.50;;;;;;4097853;28;20042;-71
2022/06/16 09:58:06;;;;;;;2.88;0.80;;;25.90;64.10;;;;;;4099662;28;20375;-72
2022/06/16 10:00:09;;;;;;;2.03;0.98;;;25.90;62.00;;;;;;4102857;28;20546;-72
2022/06/16 10:02:22;;;;;;;2.58;1.40;;;25.90;59.40;;;;;;4092764;28;20106;-72
2022/06/16 10:04:23;;;;;;;2.03;0.95;;;25.60;56.80;;;;;;4104870;28;20039;-72
2022/06/16 10:06:54;;;;;;;0.95;0.60;;;25.50;64.10;;;;;;4099726;28;20090;-72
2022/06/16 10:09:08;;;;;;;1.52;0.80;;;25.30;57.80;;;;;;4099383;28;20118;-72
2022/06/16 10:11:26;;;;;;;2.70;1.05;;;25.00;58.00;;;;;;4098791;28;20399;-72
2022/06/16 10:13:37;;;;;;;4.35;0.90;;;25.20;61.90;;;;;;4101504;28;20055;-72
2022/06/16 10:16:11;;;;;;;2.17;1.20;;;25.40;65.30;;;;;;4098403;28;20167;-71
2022/06/16 10:18:12;;;;;;;1.40;0.68;;;25.50;66.20;;;;;;4101268;28;20035;-72
2022/06/16 10:20:15;;;;;;;3.55;0.90;;;25.60;67.10;;;;;;4100117;28;20038;-75
2022/06/16 10:22:20;;;;;;;1.65;0.93;;;25.70;64.30;;;;;;4097726;28;20056;-72
2022/06/16 10:24:25;;;;;;;2.95;1.15;;;25.80;64.20;;;;;;4096888;28;20027;-73
2022/06/16 10:26:26;;;;;;;1.45;0.70;;;25.90;66.90;;;;;;4098262;28;20047;-73
2022/06/16 10:28:33;;;;;;;1.55;0.63;;;26.00;65.70;;;;;;4098953;28;20047;-73
2022/06/16 10:30:39;;;;;;;2.45;1.00;;;26.00;60.90;;;;;;4096561;28;20027;-73
2022/06/16 10:32:43;;;;;;;1.42;0.88;;;25.90;60.30;;;;;;4100379;28;20035;-73
2022/06/16 10:34:52;;;;;;;1.48;0.77;;;26.00;63.30;;;;;;4100328;28;20426;-73
2022/06/16 10:37:16;;;;;;;2.00;0.82;;;26.10;59.50;;;;;;4100235;28;20042;-73
2022/06/16 10:39:27;;;;;;;3.55;0.93;;;26.00;64.30;;;;;;4097748;28;20109;-73
2022/06/16 10:41:35;;;;;;;3.97;1.05;;;26.10;59.50;;;;;;4100508;28;20031;-73
2022/06/16 10:43:39;;;;;;;1.10;0.73;;;26.10;63.90;;;;;;4100777;28;20039;-73
2022/06/16 10:45:41;;;;;;;2.35;0.90;;;26.20;66.70;;;;;;4100632;28;20541;-73
2022/06/16 10:47:50;;;;;;;0.90;0.80;;;26.30;64.30;;;;;;4100607;28;20035;-73
2022/06/16 10:49:51;;;;;;;1.55;0.88;;;26.30;59.30;;;;;;4100706;28;20035;-73
2022/06/16 10:51:59;;;;;;;3.35;1.25;;;26.10;62.30;;;;;;4100540;28;20483;-73
2022/06/16 10:54:01;;;;;;;1.63;1.10;;;25.70;58.40;;;;;;4096401;28;20400;-73
2022/06/16 10:56:11;;;;;;;1.45;0.80;;;25.70;57.80;;;;;;4092847;28;20042;-73
2022/06/16 10:58:25;;;;;;;5.78;0.85;;;25.70;60.20;;;;;;4099918;28;20422;-74
2022/06/16 11:00:29;;;;;;;2.03;0.85;;;25.80;64.20;;;;;;4095154;28;20511;-73
2022/06/16 11:02:32;;;;;;;1.67;0.90;;;25.80;59.90;;;;;;4101061;28;20505;-73
2022/06/16 11:04:38;;;;;;;2.00;1.25;;;25.90;66.30;;;;;;4101083;28;20039;-73
2022/06/16 11:06:47;;;;;;;1.67;1.00;;;26.00;64.20;;;;;;4098456;28;20054;-73
2022/06/16 11:08:58;;;;;;;2.22;1.23;;;26.10;62.80;;;;;;4096604;28;20035;-73